Time;durP1;ratioP1;P1;durP2;ratioP2;P2;SDS_P1;SDS_P2;PMS_P1;PMS_P2;Temp;Humidity;BMP_temperature;BMP_pressure;BME280_temperature;BME280_humidity;BME280_pressure;Samples;Min_cycle;Max_cycle;Signal;HPM_P1;HPM_P2
2021/12/29 00:01:48;;;;;;;82.55;3.65;;;10.30;91.70;;;;;;5037823;28;20052;-67
2021/12/29 00:04:13;;;;;;;110.05;3.65;;;10.30;91.80;;;;;;5033875;28;20075;-67
2021/12/29 00:06:39;;;;;;;53.03;2.80;;;10.30;91.90;;;;;;5033952;28;20116;-67
2021/12/29 00:09:05;;;;;;;128.45;4.18;;;10.30;91.90;;;;;;5041848;28;20029;-67
2021/12/29 00:11:31;;;;;;;45.08;3.20;;;10.30;91.90;;;;;;5039935;28;20025;-67
2021/12/29 00:14:00;;;;;;;63.78;3.30;;;10.20;91.90;;;;;;5053485;28;20029;-67
2021/12/29 00:16:28;;;;;;;17.33;2.28;;;10.10;91.90;;;;;;5052464;28;20091;-67
2021/12/29 00:18:54;;;;;;;4.22;1.77;;;10.10;92.00;;;;;;5053598;28;20037;-67
2021/12/29 00:21:20;;;;;;;2.35;1.90;;;10.00;92.10;;;;;;5049059;28;20060;-67
2021/12/29 00:23:45;;;;;;;3.42;1.55;;;9.90;92.20;;;;;;5043624;28;20025;-67
2021/12/29 00:26:12;;;;;;;2.50;1.60;;;9.90;92.40;;;;;;5052998;28;20040;-67
2021/12/29 00:28:37;;;;;;;20.38;2.67;;;9.80;92.50;;;;;;5052880;28;20037;-67
2021/12/29 00:31:03;;;;;;;62.53;4.30;;;9.80;92.60;;;;;;5052202;28;20033;-67
2021/12/29 00:33:47;;;;;;;108.28;5.18;;;9.80;92.70;;;;;;5038684;28;20084;-67
2021/12/29 00:36:31;;;;;;;;;;;9.70;92.70;;;;;;5033640;28;20110;-67
2021/12/29 00:39:32;;;;;;;54.53;3.55;;;9.70;92.70;;;;;;5000335;28;19968;-67
2021/12/29 00:42:17;;;;;;;33.28;3.35;;;9.70;92.70;;;;;;5044139;28;20041;-67
2021/12/29 00:45:03;;;;;;;35.85;3.95;;;9.60;92.80;;;;;;5046849;28;20056;-67
2021/12/29 00:47:33;;;;;;;55.15;4.40;;;9.60;92.80;;;;;;5044681;28;20551;-67
2021/12/29 00:50:01;;;;;;;36.10;4.00;;;9.60;92.90;;;;;;5042264;28;20024;-67
2021/12/29 00:52:27;;;;;;;59.92;4.30;;;9.60;92.90;;;;;;5048489;28;20040;-67
2021/12/29 00:54:52;;;;;;;25.13;3.13;;;9.60;92.90;;;;;;5043674;28;20112;-67
2021/12/29 00:57:24;;;;;;;33.70;3.50;;;9.60;92.90;;;;;;5035603;28;20056;-67
2021/12/29 00:59:50;;;;;;;24.10;3.92;;;9.50;92.90;;;;;;5033592;28;20121;-67
2021/12/29 01:02:15;;;;;;;80.05;5.05;;;9.50;92.90;;;;;;5043420;28;20115;-67
2021/12/29 01:04:41;;;;;;;24.60;4.57;;;9.60;93.00;;;;;;5047328;28;20036;-67
2021/12/29 01:07:07;;;;;;;52.65;4.38;;;9.60;93.00;;;;;;5049726;28;20091;-67
2021/12/29 01:09:32;;;;;;;60.72;4.30;;;9.60;92.90;;;;;;5050859;28;20022;-67
2021/12/29 01:12:01;;;;;;;5.60;2.42;;;9.60;92.90;;;;;;5051861;28;20040;-67
2021/12/29 01:14:30;;;;;;;56.75;3.45;;;9.60;92.90;;;;;;5052233;28;20037;-67
2021/12/29 01:16:56;;;;;;;58.60;3.63;;;9.60;92.90;;;;;;5052295;28;20408;-67
2021/12/29 01:19:29;;;;;;;14.57;3.03;;;9.60;92.90;;;;;;5051227;28;20075;-67
2021/12/29 01:21:57;;;;;;;2.65;1.85;;;9.60;93.00;;;;;;5043993;28;20060;-67
2021/12/29 01:24:32;;;;;;;2.78;1.52;;;9.60;93.00;;;;;;5045423;28;20067;-67
2021/12/29 01:26:59;;;;;;;7.57;2.67;;;9.50;93.00;;;;;;5031713;28;20033;-67
2021/12/29 01:29:29;;;;;;;6.82;3.63;;;9.50;93.10;;;;;;5045265;28;20049;-67
2021/12/29 01:31:56;;;;;;;8.68;3.67;;;9.50;93.20;;;;;;5043670;28;20037;-67
2021/12/29 01:34:22;;;;;;;10.65;3.08;;;9.50;93.20;;;;;;5033480;28;20025;-67
2021/12/29 01:36:48;;;;;;;6.90;2.20;;;9.40;93.20;;;;;;5045144;28;20374;-67
2021/12/29 01:39:16;;;;;;;10.85;2.85;;;9.40;93.20;;;;;;5042960;28;20040;-67
2021/12/29 01:41:43;;;;;;;7.65;2.17;;;9.40;93.20;;;;;;5054605;28;20029;-67
2021/12/29 01:44:11;;;;;;;5.70;2.85;;;9.40;93.40;;;;;;5044587;28;20480;-67
2021/12/29 01:46:38;;;;;;;10.27;4.43;;;9.40;93.20;;;;;;5054229;28;20044;-67
2021/12/29 01:49:05;;;;;;;10.13;4.15;;;9.40;93.20;;;;;;5056482;28;20056;-67
2021/12/29 01:51:31;;;;;;;21.40;4.57;;;9.40;93.20;;;;;;5042098;28;20064;-67
2021/12/29 01:54:15;;;;;;;13.45;4.22;;;9.40;93.20;;;;;;5055433;28;20025;-67
2021/12/29 01:56:44;;;;;;;10.30;3.65;;;9.40;93.20;;;;;;5046596;28;20080;-67
2021/12/29 01:59:10;;;;;;;10.23;3.33;;;9.40;93.50;;;;;;5043258;28;20112;-67
2021/12/29 02:01:36;;;;;;;7.45;3.70;;;9.40;93.20;;;;;;5055296;28;20037;-67
2021/12/29 02:04:02;;;;;;;10.18;4.30;;;9.40;93.20;;;;;;5055906;28;20017;-67
2021/12/29 02:06:27;;;;;;;7.45;4.38;;;9.40;93.20;;;;;;5042520;28;20116;-67
2021/12/29 02:08:55;;;;;;;7.30;3.47;;;9.50;93.20;;;;;;5054861;28;20029;-67
2021/12/29 02:11:28;;;;;;;7.30;3.20;;;9.40;93.20;;;;;;5055926;28;20111;-67
2021/12/29 02:14:02;;;;;;;6.47;3.20;;;9.40;93.20;;;;;;5042562;28;20033;-67
2021/12/29 02:16:29;;;;;;;7.95;4.05;;;9.40;93.20;;;;;;5055225;28;20037;-67
2021/12/29 02:19:00;;;;;;;7.85;3.50;;;9.40;93.20;;;;;;5055319;28;20056;-67
2021/12/29 02:21:27;;;;;;;1.75;1.17;;;9.40;93.20;;;;;;5055398;28;20033;-67
2021/12/29 02:26:33;;;;;;;4.65;1.58;;;9.40;93.20;;;;;;5055497;28;20037;-67
2021/12/29 02:29:01;;;;;;;2.33;1.77;;;9.40;93.30;;;;;;5048215;28;20021;-67
2021/12/29 02:31:28;;;;;;;4.38;2.30;;;9.40;93.30;;;;;;5036218;28;20083;-67
2021/12/29 02:33:54;;;;;;;1.67;1.20;;;9.30;93.40;;;;;;5035404;28;20025;-67
2021/12/29 02:36:20;;;;;;;0.82;0.82;;;9.30;93.50;;;;;;5034509;28;20087;-67
2021/12/29 02:38:51;;;;;;;4.03;1.95;;;9.20;93.60;;;;;;5044178;28;20029;-67
2021/12/29 02:41:17;;;;;;;4.68;2.20;;;9.20;93.60;;;;;;5050535;28;20032;-67
2021/12/29 02:43:44;;;;;;;2.38;1.38;;;9.20;93.70;;;;;;5051463;28;20078;-67
2021/12/29 02:46:13;;;;;;;3.08;1.90;;;9.20;93.70;;;;;;5054832;28;20044;-67
2021/12/29 02:48:49;;;;;;;7.43;3.67;;;9.20;94.00;;;;;;5051048;28;20029;-67
2021/12/29 02:51:15;;;;;;;4.43;2.40;;;9.20;93.80;;;;;;5050368;28;20080;-67
2021/12/29 02:53:41;;;;;;;4.18;2.20;;;9.20;93.80;;;;;;5046057;28;20033;-67
2021/12/29 02:56:07;;;;;;;4.45;2.75;;;9.20;93.90;;;;;;5054415;28;20056;-67
2021/12/29 02:58:32;;;;;;;8.68;4.65;;;9.10;93.90;;;;;;5043085;28;20026;-67
2021/12/29 03:01:06;;;;;;;5.85;3.25;;;9.20;93.90;;;;;;5052695;28;20465;-67
2021/12/29 03:03:33;;;;;;;9.82;4.97;;;9.10;93.90;;;;;;5054949;28;20040;-67
2021/12/29 03:05:59;;;;;;;6.43;3.90;;;9.10;94.00;;;;;;5040769;28;20032;-67
2021/12/29 03:08:24;;;;;;;5.80;2.30;;;9.10;94.00;;;;;;5041368;28;20461;-67
2021/12/29 03:10:53;;;;;;;8.18;4.03;;;9.10;94.00;;;;;;5049497;28;20040;-67
2021/12/29 03:13:28;;;;;;;49.22;5.65;;;9.20;94.00;;;;;;5044208;28;20052;-67
2021/12/29 03:15:54;;;;;;;29.10;5.22;;;9.20;94.00;;;;;;5039908;28;20040;-67
2021/12/29 03:18:23;;;;;;;55.63;5.38;;;9.20;93.90;;;;;;5054033;28;20029;-67
2021/12/29 03:20:50;;;;;;;159.80;10.18;;;9.20;93.90;;;;;;5048179;28;20029;-67
2021/12/29 03:23:16;;;;;;;66.55;7.05;;;9.20;93.90;;;;;;5034747;28;20107;-67
2021/12/29 03:25:42;;;;;;;98.13;8.68;;;9.30;93.90;;;;;;5033841;28;20033;-67
2021/12/29 03:28:08;;;;;;;106.03;8.63;;;9.20;93.90;;;;;;5047688;28;20045;-67
2021/12/29 03:30:37;;;;;;;26.85;6.32;;;9.30;93.90;;;;;;5054363;28;20041;-67
2021/12/29 03:33:05;;;;;;;13.80;6.03;;;9.30;93.80;;;;;;5053403;28;20029;-67
2021/12/29 03:35:37;;;;;;;9.18;4.45;;;9.30;93.80;;;;;;5054350;28;20500;-67
2021/12/29 03:38:05;;;;;;;10.82;4.45;;;9.40;93.80;;;;;;5051062;28;20520;-67
2021/12/29 03:40:35;;;;;;;7.95;4.25;;;9.40;93.70;;;;;;5042667;28;20120;-67
2021/12/29 03:43:01;;;;;;;7.20;3.42;;;9.30;93.70;;;;;;5054142;28;20060;-67
2021/12/29 03:45:27;;;;;;;5.07;2.75;;;9.30;93.70;;;;;;5040851;28;20087;-67
2021/12/29 03:47:52;;;;;;;10.95;3.92;;;9.30;93.70;;;;;;5032886;28;20037;-67
2021/12/29 03:50:18;;;;;;;12.57;5.85;;;9.30;93.70;;;;;;5036635;28;20563;-68
2021/12/29 03:52:44;;;;;;;6.80;3.55;;;9.30;93.70;;;;;;5046968;28;20120;-68
2021/12/29 03:55:10;;;;;;;12.40;5.13;;;9.30;93.70;;;;;;5041133;28;20427;-66
2021/12/29 03:57:35;;;;;;;10.60;4.25;;;9.30;93.70;;;;;;5051338;28;20045;-67
2021/12/29 04:00:04;;;;;;;12.13;6.45;;;9.30;93.70;;;;;;5046058;28;20090;-67
2021/12/29 04:02:36;;;;;;;12.98;5.40;;;9.30;93.70;;;;;;5041248;28;20420;-67
2021/12/29 04:05:02;;;;;;;14.50;6.25;;;9.30;93.70;;;;;;5042406;28;20032;-67
2021/12/29 04:07:28;;;;;;;20.08;7.03;;;9.40;93.70;;;;;;5040731;28;20037;-67
2021/12/29 04:09:54;;;;;;;29.75;7.05;;;9.40;93.80;;;;;;5042348;28;20074;-67
2021/12/29 04:12:23;;;;;;;20.55;6.03;;;9.40;93.80;;;;;;5053546;28;20061;-67
2021/12/29 04:14:48;;;;;;;15.15;5.93;;;9.40;93.70;;;;;;5043282;28;20021;-67
2021/12/29 04:17:18;;;;;;;15.95;5.32;;;9.40;93.70;;;;;;5037947;28;20117;-67
2021/12/29 04:22:29;;;;;;;7.25;3.40;;;9.40;93.60;;;;;;5046087;28;20041;-67
2021/12/29 04:24:58;;;;;;;13.63;5.93;;;9.40;93.60;;;;;;5046878;28;20068;-68
2021/12/29 04:27:25;;;;;;;16.35;4.57;;;9.40;93.70;;;;;;5053352;28;20037;-67
2021/12/29 04:29:51;;;;;;;22.25;6.85;;;9.40;93.70;;;;;;5051604;28;20489;-67
2021/12/29 04:32:18;;;;;;;70.72;7.88;;;9.40;93.70;;;;;;5034839;28;20048;-67
2021/12/29 04:34:44;;;;;;;22.70;6.22;;;9.40;93.70;;;;;;5039522;28;20028;-67
2021/12/29 04:37:09;;;;;;;19.83;5.30;;;9.40;93.80;;;;;;5043793;28;20385;-67
2021/12/29 04:39:35;;;;;;;17.13;5.32;;;9.40;93.70;;;;;;5047671;28;20033;-67
2021/12/29 04:42:01;;;;;;;18.83;4.97;;;9.40;93.70;;;;;;5052790;28;20055;-67
2021/12/29 04:44:26;;;;;;;8.02;3.90;;;9.40;93.60;;;;;;5039031;28;20033;-67
2021/12/29 04:46:54;;;;;;;47.05;6.80;;;9.40;93.60;;;;;;5052867;28;20037;-67
2021/12/29 04:49:25;;;;;;;13.95;4.18;;;9.40;93.60;;;;;;5049724;28;20029;-67
2021/12/29 04:51:56;;;;;;;65.75;6.43;;;9.40;93.60;;;;;;5032997;28;20396;-67
2021/12/29 04:54:22;;;;;;;62.75;6.90;;;9.50;93.70;;;;;;5050375;28;20033;-67
2021/12/29 04:56:48;;;;;;;78.40;7.47;;;9.50;93.70;;;;;;5052168;28;20102;-67
2021/12/29 04:59:16;;;;;;;175.57;8.98;;;9.40;93.70;;;;;;5040294;28;20025;-67
2021/12/29 05:01:43;;;;;;;137.73;8.85;;;9.50;93.80;;;;;;5052793;28;20051;-67
2021/12/29 05:04:09;;;;;;;62.70;5.68;;;9.50;93.80;;;;;;5051664;28;20050;-67
2021/12/29 05:09:19;;;;;;;109.10;6.35;;;9.50;93.70;;;;;;5035861;28;20025;-67
2021/12/29 05:11:46;;;;;;;214.05;9.50;;;9.60;93.70;;;;;;5042150;28;20526;-67
2021/12/29 05:14:12;;;;;;;192.98;9.45;;;9.50;93.70;;;;;;5036741;28;20043;-67
2021/12/29 05:16:38;;;;;;;259.85;9.98;;;9.60;93.80;;;;;;5040905;28;20362;-67
2021/12/29 05:19:04;;;;;;;272.80;10.02;;;9.60;93.80;;;;;;5045056;28;20026;-68
2021/12/29 05:21:30;;;;;;;172.70;7.85;;;9.60;93.80;;;;;;5044514;28;20070;-67
2021/12/29 05:23:56;;;;;;;136.10;6.55;;;9.60;93.80;;;;;;5046545;28;20825;-67
2021/12/29 05:26:22;;;;;;;29.80;4.05;;;9.60;93.70;;;;;;5044255;28;20107;-67
2021/12/29 05:28:48;;;;;;;46.90;4.00;;;9.60;93.60;;;;;;5046239;28;20045;-67
2021/12/29 05:31:13;;;;;;;34.72;4.85;;;9.60;93.50;;;;;;5044920;28;20029;-67
2021/12/29 05:33:39;;;;;;;32.97;5.05;;;9.60;93.50;;;;;;5045327;28;20049;-67
2021/12/29 05:36:05;;;;;;;49.08;4.55;;;9.60;93.50;;;;;;5032510;28;20029;-67
2021/12/29 05:38:31;;;;;;;67.13;4.72;;;9.60;93.50;;;;;;5037960;28;20504;-67
2021/12/29 05:40:56;;;;;;;128.07;7.18;;;9.50;93.50;;;;;;5038193;28;20025;-68
2021/12/29 05:43:22;;;;;;;45.28;4.30;;;9.50;93.60;;;;;;5039338;28;20032;-68
2021/12/29 05:45:49;;;;;;;57.10;5.85;;;9.50;93.60;;;;;;5051236;28;20060;-68
2021/12/29 05:48:15;;;;;;;46.17;5.57;;;9.50;93.60;;;;;;5048492;28;20509;-67
2021/12/29 05:50:41;;;;;;;34.83;4.85;;;9.50;93.60;;;;;;5037239;28;20068;-67
2021/12/29 05:53:07;;;;;;;42.30;5.68;;;9.50;93.70;;;;;;5039664;28;20064;-67
2021/12/29 05:55:33;;;;;;;50.70;5.78;;;9.50;93.70;;;;;;5038176;28;20092;-67
2021/12/29 05:57:59;;;;;;;85.35;6.32;;;9.50;93.70;;;;;;5032095;28;20467;-67
2021/12/29 06:00:27;;;;;;;140.00;8.38;;;9.50;93.70;;;;;;5032679;28;20112;-67
2021/12/29 06:02:53;;;;;;;48.67;5.93;;;9.50;93.70;;;;;;5043536;28;20029;-67
2021/12/29 06:05:19;;;;;;;85.28;6.18;;;9.50;93.70;;;;;;5046631;28;20091;-67
2021/12/29 06:07:45;;;;;;;49.42;5.45;;;9.50;93.90;;;;;;5043128;28;20063;-67
2021/12/29 06:10:11;;;;;;;71.45;5.90;;;9.50;93.70;;;;;;5042522;28;20029;-67
2021/12/29 06:12:39;;;;;;;75.55;5.63;;;9.50;93.60;;;;;;5051385;28;20124;-67
2021/12/29 06:15:06;;;;;;;68.95;5.70;;;9.50;93.60;;;;;;5039501;28;20452;-69
2021/12/29 06:17:31;;;;;;;105.75;6.75;;;9.50;93.60;;;;;;5044818;28;20184;-67
2021/12/29 06:19:57;;;;;;;131.65;7.63;;;9.50;93.60;;;;;;5044225;28;20089;-67
2021/12/29 06:22:24;;;;;;;189.15;7.72;;;9.60;93.70;;;;;;5051149;28;20384;-67
2021/12/29 06:24:52;;;;;;;243.23;9.90;;;9.60;93.70;;;;;;5051963;28;20067;-67
2021/12/29 06:27:20;;;;;;;136.55;6.93;;;9.50;93.60;;;;;;5053444;28;20048;-67
2021/12/29 06:29:46;;;;;;;261.33;9.52;;;9.70;93.70;;;;;;5055097;28;20033;-67
2021/12/29 06:32:11;;;;;;;173.90;8.43;;;9.60;93.60;;;;;;5048044;28;20171;-67
2021/12/29 06:34:37;;;;;;;246.10;10.32;;;9.60;93.60;;;;;;5049292;28;20033;-67
2021/12/29 06:37:09;;;;;;;90.10;6.72;;;9.60;93.70;;;;;;5047089;28;20032;-67
2021/12/29 06:39:39;;;;;;;75.68;4.97;;;9.70;93.70;;;;;;5050715;28;20377;-67
2021/12/29 06:42:05;;;;;;;140.65;6.40;;;9.70;93.60;;;;;;5045242;28;20127;-68
2021/12/29 06:44:31;;;;;;;109.68;6.00;;;9.70;93.60;;;;;;5048438;28;20506;-67
2021/12/29 06:46:57;;;;;;;163.40;7.18;;;9.60;93.50;;;;;;5045549;28;20099;-67
2021/12/29 06:49:22;;;;;;;125.53;6.80;;;9.70;93.80;;;;;;5054087;28;20056;-69
2021/12/29 06:51:49;;;;;;;149.77;7.22;;;9.70;93.50;;;;;;5054239;28;20205;-68
2021/12/29 06:54:15;;;;;;;80.65;5.78;;;9.70;93.50;;;;;;5039610;28;20099;-68
2021/12/29 06:56:41;;;;;;;68.40;5.93;;;9.70;93.50;;;;;;5054191;28;20485;-67
2021/12/29 06:59:06;;;;;;;43.33;5.55;;;9.70;93.50;;;;;;5054729;28;20366;-67
2021/12/29 07:01:32;;;;;;;63.38;6.18;;;9.60;93.40;;;;;;5055148;28;20159;-67
2021/12/29 07:03:59;;;;;;;99.95;6.22;;;9.60;93.40;;;;;;5037366;28;20029;-67
2021/12/29 07:06:24;;;;;;;185.30;8.15;;;9.60;93.40;;;;;;5036047;28;20044;-67
2021/12/29 07:08:50;;;;;;;101.10;6.72;;;9.60;93.40;;;;;;5037163;28;20679;-67
2021/12/29 07:11:15;;;;;;;112.00;6.88;;;9.60;93.40;;;;;;5052693;28;20032;-67
2021/12/29 07:13:44;;;;;;;164.32;7.65;;;9.60;93.40;;;;;;5041433;28;20030;-69
2021/12/29 07:16:10;;;;;;;120.00;6.13;;;9.70;93.50;;;;;;5047268;28;20064;-67
2021/12/29 07:18:35;;;;;;;143.88;6.13;;;9.60;93.40;;;;;;5034018;28;20470;-67
2021/12/29 07:21:01;;;;;;;88.82;5.00;;;9.60;93.40;;;;;;5042535;28;20074;-67
2021/12/29 07:23:27;;;;;;;105.90;6.32;;;9.70;93.40;;;;;;5040945;28;20075;-70
2021/12/29 07:25:52;;;;;;;83.22;5.32;;;9.70;93.40;;;;;;5034050;28;20033;-68
2021/12/29 07:28:18;;;;;;;65.78;6.28;;;9.70;93.40;;;;;;5047603;28;20041;-68
2021/12/29 07:30:44;;;;;;;33.67;4.07;;;9.60;93.40;;;;;;5047476;28;20468;-69
2021/12/29 07:33:09;;;;;;;15.10;3.25;;;9.60;93.40;;;;;;5044054;28;20033;-69
2021/12/29 07:35:35;;;;;;;24.10;4.50;;;9.60;93.40;;;;;;5037253;28;20056;-68
2021/12/29 07:38:01;;;;;;;7.68;2.33;;;9.60;93.40;;;;;;5042571;28;20048;-69
2021/12/29 07:40:27;;;;;;;23.58;3.97;;;9.60;93.50;;;;;;5033347;28;20095;-68
2021/12/29 07:42:52;;;;;;;27.90;4.72;;;9.50;93.50;;;;;;5048021;28;20033;-67
2021/12/29 07:45:19;;;;;;;15.07;3.47;;;9.50;93.50;;;;;;5045732;28;20132;-67
2021/12/29 07:47:47;;;;;;;2.83;1.92;;;9.50;93.50;;;;;;5051309;28;20123;-68
2021/12/29 07:50:18;;;;;;;2.40;1.35;;;9.50;93.60;;;;;;5034309;28;20033;-67
2021/12/29 07:52:47;;;;;;;21.15;3.08;;;9.50;93.70;;;;;;5033041;28;20029;-67
2021/12/29 07:55:15;;;;;;;11.00;2.90;;;9.50;93.70;;;;;;5033801;28;20108;-66
2021/12/29 07:57:40;;;;;;;15.65;5.95;;;9.50;93.80;;;;;;5038959;28;20035;-67
2021/12/29 08:00:07;;;;;;;15.93;4.03;;;9.50;93.80;;;;;;5043710;28;20411;-67
2021/12/29 08:02:39;;;;;;;32.40;5.28;;;9.50;93.80;;;;;;5044828;28;20040;-67
2021/12/29 08:05:07;;;;;;;24.80;4.65;;;9.40;93.80;;;;;;5050236;28;20472;-67
2021/12/29 08:07:34;;;;;;;20.67;4.38;;;9.40;93.80;;;;;;5041143;28;20037;-67
2021/12/29 08:10:00;;;;;;;50.25;4.22;;;9.50;93.90;;;;;;5043118;28;20021;-66
2021/12/29 08:12:26;;;;;;;40.20;4.75;;;9.50;93.90;;;;;;5036132;28;20029;-67
2021/12/29 08:14:52;;;;;;;43.33;5.22;;;9.50;93.90;;;;;;5044159;28;20179;-67
2021/12/29 08:17:18;;;;;;;92.38;6.20;;;9.50;93.80;;;;;;5042054;28;20040;-70
2021/12/29 08:19:45;;;;;;;20.23;4.45;;;9.60;94.10;;;;;;5048094;28;20037;-67
2021/12/29 08:22:14;;;;;;;38.72;4.65;;;9.50;93.80;;;;;;5051252;28;20207;-67
2021/12/29 08:24:39;;;;;;;59.70;5.85;;;9.60;93.80;;;;;;5051470;28;20078;-67
2021/12/29 08:27:05;;;;;;;17.15;3.88;;;9.50;93.80;;;;;;5039265;28;20123;-66
2021/12/29 08:29:31;;;;;;;15.50;5.22;;;9.60;93.80;;;;;;5041646;28;20041;-66
2021/12/29 08:31:57;;;;;;;17.77;3.80;;;9.60;93.90;;;;;;5041977;28;20021;-70
2021/12/29 08:34:26;;;;;;;5.00;2.95;;;9.60;93.90;;;;;;5036034;28;20120;-69
2021/12/29 08:36:51;;;;;;;46.60;4.70;;;9.50;93.90;;;;;;5037953;28;20037;-66
2021/12/29 08:39:18;;;;;;;19.52;4.93;;;9.50;93.90;;;;;;5035662;28;20420;-68
2021/12/29 08:41:49;;;;;;;21.52;4.25;;;9.50;93.90;;;;;;5031666;28;20496;-68
2021/12/29 08:44:15;;;;;;;3.03;1.85;;;9.50;94.00;;;;;;5040793;28;20033;-67
2021/12/29 08:46:45;;;;;;;10.27;3.45;;;9.50;94.00;;;;;;5030675;28;20126;-67
2021/12/29 08:49:11;;;;;;;1.50;1.27;;;9.50;94.00;;;;;;5032984;28;20029;-67
2021/12/29 08:51:37;;;;;;;11.75;4.47;;;9.50;94.00;;;;;;5035855;28;20118;-66
2021/12/29 08:54:02;;;;;;;14.43;4.90;;;9.50;94.10;;;;;;5031161;28;20401;-66
2021/12/29 08:56:28;;;;;;;33.92;5.20;;;9.50;94.10;;;;;;5030816;28;20041;-66
2021/12/29 08:58:54;;;;;;;23.08;3.95;;;9.50;94.10;;;;;;5034578;28;20370;-66
2021/12/29 09:01:22;;;;;;;29.63;5.38;;;9.50;94.10;;;;;;5033687;28;20056;-67
2021/12/29 09:03:48;;;;;;;26.15;5.75;;;9.60;94.10;;;;;;5032841;28;20025;-66
2021/12/29 09:06:15;;;;;;;12.70;4.30;;;9.60;94.10;;;;;;5030874;28;20108;-66
2021/12/29 09:08:41;;;;;;;40.13;6.35;;;9.60;94.10;;;;;;5033094;28;20029;-67
2021/12/29 09:11:07;;;;;;;16.35;4.85;;;9.50;94.10;;;;;;5033502;28;20021;-67
2021/12/29 09:13:34;;;;;;;21.60;4.47;;;9.60;94.10;;;;;;5032531;28;20029;-67
2021/12/29 09:16:00;;;;;;;19.38;4.55;;;9.60;94.10;;;;;;5033282;28;20087;-67
2021/12/29 09:18:28;;;;;;;3.53;2.75;;;9.60;94.10;;;;;;5031273;28;20025;-67
2021/12/29 09:20:58;;;;;;;69.18;7.20;;;9.60;94.20;;;;;;5031170;28;20033;-67
2021/12/29 09:23:24;;;;;;;7.47;3.08;;;9.60;94.20;;;;;;5033979;28;20095;-67
2021/12/29 09:25:49;;;;;;;16.10;4.63;;;9.60;94.20;;;;;;5030660;28;20033;-67
2021/12/29 09:28:17;;;;;;;14.23;4.88;;;9.70;94.20;;;;;;5032836;28;20045;-66
2021/12/29 09:30:45;;;;;;;12.77;4.63;;;9.70;94.20;;;;;;5032306;28;20128;-67
2021/12/29 09:33:13;;;;;;;17.38;5.60;;;9.70;94.20;;;;;;5030676;28;20051;-67
2021/12/29 09:35:39;;;;;;;11.82;3.55;;;9.70;94.20;;;;;;5033878;28;20022;-66
2021/12/29 09:38:07;;;;;;;13.70;5.10;;;9.70;94.20;;;;;;5033192;28;20643;-67
2021/12/29 09:40:34;;;;;;;9.13;4.78;;;9.70;94.20;;;;;;5030964;28;20031;-66
2021/12/29 09:43:00;;;;;;;24.75;6.03;;;9.70;94.20;;;;;;5031905;28;20040;-67
2021/12/29 09:45:26;;;;;;;12.45;5.30;;;9.70;94.30;;;;;;5030425;28;20017;-66
2021/12/29 09:47:53;;;;;;;12.98;2.95;;;9.70;94.30;;;;;;5032145;28;20073;-66
2021/12/29 09:50:20;;;;;;;7.90;2.85;;;9.70;94.30;;;;;;5032225;28;20034;-66
2021/12/29 09:52:49;;;;;;;15.18;5.97;;;9.80;94.30;;;;;;5033123;28;20091;-66
2021/12/29 09:55:18;;;;;;;8.13;2.58;;;9.80;94.40;;;;;;5031697;28;20116;-66
2021/12/29 09:57:50;;;;;;;5.88;2.85;;;9.80;94.40;;;;;;5030722;28;20038;-66
2021/12/29 10:00:27;;;;;;;13.18;4.68;;;9.70;94.40;;;;;;5030963;28;20029;-66
2021/12/29 10:02:56;;;;;;;3.50;1.20;;;9.80;94.50;;;;;;5035676;28;20530;-66
2021/12/29 10:05:24;;;;;;;8.18;3.03;;;9.80;94.50;;;;;;5036776;28;20145;-66
2021/12/29 10:08:12;;;;;;;4.72;2.10;;;9.80;94.50;;;;;;5034853;28;20041;-66
2021/12/29 10:10:41;;;;;;;10.65;4.03;;;9.80;94.60;;;;;;5042988;28;20037;-66
2021/12/29 10:13:09;;;;;;;17.08;3.60;;;9.80;94.60;;;;;;5034642;28;20036;-66
2021/12/29 10:15:41;;;;;;;5.88;3.08;;;9.80;94.70;;;;;;5037642;28;20024;-66
2021/12/29 10:18:13;;;;;;;5.20;2.92;;;9.80;94.70;;;;;;5039556;28;20480;-66
2021/12/29 10:20:44;;;;;;;5.43;2.90;;;9.80;94.80;;;;;;5037016;28;20036;-66
2021/12/29 10:23:16;;;;;;;4.40;2.47;;;9.80;94.80;;;;;;5035137;28;20029;-66
2021/12/29 10:25:42;;;;;;;10.77;3.85;;;9.80;94.80;;;;;;5037279;28;20037;-66
2021/12/29 10:28:18;;;;;;;6.15;3.28;;;9.80;94.80;;;;;;5034393;28;20045;-66
2021/12/29 10:30:44;;;;;;;3.15;2.42;;;9.80;94.90;;;;;;5035388;28;20030;-66
2021/12/29 10:33:13;;;;;;;2.17;1.48;;;9.90;95.00;;;;;;5037478;28;20047;-66
2021/12/29 10:35:39;;;;;;;6.60;3.45;;;9.90;95.00;;;;;;5037844;28;20530;-66
2021/12/29 10:38:22;;;;;;;4.63;2.08;;;9.90;95.00;;;;;;5040330;28;20036;-66
2021/12/29 10:40:50;;;;;;;5.10;2.75;;;9.90;95.00;;;;;;5041332;28;20037;-66
2021/12/29 10:43:17;;;;;;;19.80;4.00;;;9.90;95.00;;;;;;5038931;28;20037;-66
2021/12/29 10:45:44;;;;;;;9.38;3.63;;;9.90;95.10;;;;;;5038135;28;20028;-66
2021/12/29 10:48:45;;;;;;;2.30;1.48;;;9.90;95.10;;;;;;5042821;28;20036;-66
2021/12/29 10:51:11;;;;;;;7.47;3.78;;;10.00;95.10;;;;;;5048516;28;20086;-65
2021/12/29 10:53:39;;;;;;;4.47;2.28;;;10.00;95.10;;;;;;5050609;28;20029;-66
2021/12/29 10:56:06;;;;;;;3.80;1.88;;;10.00;95.10;;;;;;5050794;28;20049;-67
2021/12/29 10:58:34;;;;;;;2.63;1.50;;;10.00;95.10;;;;;;5047323;28;20215;-66
2021/12/29 11:01:12;;;;;;;8.23;2.80;;;10.00;95.20;;;;;;5044388;28;20028;-68
2021/12/29 11:03:46;;;;;;;4.28;2.10;;;10.10;95.30;;;;;;5042760;28;20033;-67
2021/12/29 11:06:18;;;;;;;3.92;2.10;;;10.10;95.30;;;;;;5046108;28;20373;-67
2021/12/29 11:08:50;;;;;;;8.82;4.07;;;10.00;95.40;;;;;;5047142;28;20059;-68
2021/12/29 11:11:17;;;;;;;9.75;3.55;;;10.10;95.50;;;;;;5038552;28;20152;-67
2021/12/29 11:13:43;;;;;;;1.58;1.08;;;10.00;95.50;;;;;;5041266;28;20037;-66
2021/12/29 11:16:09;;;;;;;5.18;1.98;;;10.10;95.50;;;;;;5049993;28;20039;-67
2021/12/29 11:18:51;;;;;;;4.70;2.95;;;10.10;95.50;;;;;;5050062;28;20025;-64
2021/12/29 11:21:43;;;;;;;4.20;2.45;;;10.20;95.60;;;;;;5049426;28;20038;-65
2021/12/29 11:24:15;;;;;;;4.45;2.50;;;10.20;95.60;;;;;;5048263;28;20151;-64
2021/12/29 11:26:42;;;;;;;11.25;4.32;;;10.20;95.60;;;;;;5054354;28;20079;-65
2021/12/29 11:29:12;;;;;;;8.13;2.90;;;10.20;95.60;;;;;;5048846;28;20473;-65
2021/12/29 11:31:43;;;;;;;5.68;2.13;;;10.20;95.60;;;;;;5034243;28;20037;-65
2021/12/29 11:34:28;;;;;;;11.40;4.10;;;10.30;95.60;;;;;;5037124;28;20485;-65
2021/12/29 11:37:04;;;;;;;11.82;3.63;;;10.30;95.60;;;;;;5034672;28;20108;-65
2021/12/29 11:39:31;;;;;;;3.08;1.92;;;10.30;95.50;;;;;;5038626;28;20051;-65
2021/12/29 11:41:56;;;;;;;6.35;2.65;;;10.30;95.80;;;;;;5039355;28;20037;-65
2021/12/29 11:44:22;;;;;;;11.73;4.75;;;10.30;95.50;;;;;;5038802;28;20072;-65
2021/12/29 11:46:48;;;;;;;11.32;3.17;;;10.40;95.50;;;;;;5046203;28;20037;-65
2021/12/29 11:49:14;;;;;;;7.30;2.97;;;10.40;95.40;;;;;;5033608;28;20116;-66
2021/12/29 11:52:08;;;;;;;12.05;3.97;;;10.40;95.40;;;;;;5042050;28;20039;-66
2021/12/29 11:54:48;;;;;;;13.05;4.20;;;10.50;95.40;;;;;;5013253;28;20598;-66
2021/12/29 11:57:21;;;;;;;7.43;3.75;;;10.50;95.40;;;;;;5034672;28;20049;-66
2021/12/29 11:59:49;;;;;;;11.32;3.35;;;10.50;95.40;;;;;;5033321;28;20127;-66
2021/12/29 12:02:26;;;;;;;12.77;3.40;;;10.60;95.40;;;;;;5032158;28;20040;-66
2021/12/29 12:05:19;;;;;;;6.80;3.53;;;10.60;95.30;;;;;;5033544;28;20036;-66
2021/12/29 12:07:46;;;;;;;12.13;3.30;;;10.60;95.30;;;;;;5034517;28;20137;-66
2021/12/29 12:10:28;;;;;;;11.70;3.22;;;10.60;95.20;;;;;;5034182;28;20029;-69
2021/12/29 12:12:54;;;;;;;10.45;3.35;;;10.60;95.20;;;;;;5036383;28;20072;-66
2021/12/29 12:15:36;;;;;;;5.18;1.70;;;10.60;95.20;;;;;;5032765;28;20424;-67
2021/12/29 12:18:09;;;;;;;11.68;4.40;;;10.70;95.20;;;;;;5032223;28;20481;-67
2021/12/29 12:20:43;;;;;;;15.18;4.70;;;10.70;95.20;;;;;;5032425;28;20105;-68
2021/12/29 12:23:08;;;;;;;7.35;3.78;;;10.70;95.20;;;;;;5032586;28;20053;-66
2021/12/29 12:25:35;;;;;;;6.10;2.92;;;10.70;95.20;;;;;;5034508;28;20045;-67
2021/12/29 12:28:02;;;;;;;11.70;4.43;;;10.80;95.10;;;;;;5031864;28;20417;-62
2021/12/29 12:30:40;;;;;;;15.00;3.92;;;10.80;95.10;;;;;;5032524;28;20025;-62
2021/12/29 12:33:11;;;;;;;12.63;4.63;;;10.90;95.10;;;;;;5034914;28;20040;-63
2021/12/29 12:35:41;;;;;;;13.52;4.20;;;10.90;95.00;;;;;;5031649;28;20485;-66
2021/12/29 12:38:16;;;;;;;14.50;4.85;;;10.90;95.00;;;;;;5034969;28;20496;-68
2021/12/29 12:40:43;;;;;;;11.38;4.68;;;10.90;95.00;;;;;;5032817;28;20044;-67
2021/12/29 12:43:16;;;;;;;13.32;4.85;;;11.00;95.00;;;;;;5032572;28;20018;-66
2021/12/29 12:45:48;;;;;;;15.07;4.78;;;11.00;95.00;;;;;;5035007;28;20082;-68
2021/12/29 12:48:18;;;;;;;10.85;4.07;;;11.00;94.90;;;;;;5030807;28;20046;-67
2021/12/29 12:50:44;;;;;;;9.45;4.15;;;11.10;94.90;;;;;;5034887;28;20127;-68
2021/12/29 12:53:11;;;;;;;6.40;3.17;;;11.10;94.80;;;;;;5037871;28;20045;-67
2021/12/29 12:55:53;;;;;;;11.20;4.78;;;11.20;94.80;;;;;;5034468;28;20060;-66
2021/12/29 12:58:19;;;;;;;12.32;2.63;;;11.20;94.70;;;;;;5031737;28;20029;-68
2021/12/29 13:00:54;;;;;;;15.05;4.28;;;11.20;94.60;;;;;;5034930;28;20188;-66
2021/12/29 13:03:23;;;;;;;15.45;4.03;;;11.20;94.60;;;;;;5033193;28;20044;-66